createdAt,value
2022-12-22T00:00:57.233Z,12.23
2022-12-22T00:03:59.004Z,10.67
2022-12-22T00:07:02.180Z,11.00
2022-12-22T00:10:03.611Z,12.03
2022-12-22T00:13:05.039Z,13.57
2022-12-22T00:16:09.179Z,10.93
2022-12-22T00:19:10.332Z,13.57
2022-12-22T00:22:11.471Z,13.07
2022-12-22T00:25:12.904Z,11.17
2022-12-22T00:28:14.362Z,16.20
2022-12-22T00:31:16.774Z,11.30
2022-12-22T00:34:18.217Z,10.60
2022-12-22T00:37:19.735Z,10.57
2022-12-22T00:40:21.124Z,12.70
2022-12-22T00:43:22.617Z,9.93
2022-12-22T00:46:30.583Z,10.40
2022-12-22T00:49:32.990Z,12.03
2022-12-22T00:52:35.586Z,14.57
2022-12-22T00:55:41.552Z,12.07
2022-12-22T00:58:42.894Z,11.80
2022-12-22T01:01:45.528Z,12.03
2022-12-22T01:04:47.076Z,11.23
2022-12-22T01:07:49.140Z,10.17
2022-12-22T01:10:50.555Z,11.53
2022-12-22T01:13:51.773Z,9.67
2022-12-22T01:16:54.195Z,11.07
2022-12-22T01:19:55.163Z,10.47
2022-12-22T01:22:56.476Z,9.97
2022-12-22T01:25:57.612Z,10.60
2022-12-22T01:28:58.646Z,12.20
2022-12-22T01:32:01.095Z,10.33
2022-12-22T01:35:02.021Z,8.87
2022-12-22T01:38:05.127Z,10.07
2022-12-22T01:41:07.096Z,8.43
2022-12-22T01:44:08.683Z,10.53
2022-12-22T01:47:11.010Z,14.13
2022-12-22T01:50:12.476Z,9.23
2022-12-22T01:53:19.658Z,9.83
2022-12-22T01:56:22.063Z,10.37
2022-12-22T01:59:23.369Z,9.03
2022-12-22T02:02:27.707Z,9.87
2022-12-22T02:05:33.237Z,9.73
2022-12-22T02:08:42.081Z,9.77
2022-12-22T02:11:49.567Z,11.13
2022-12-22T02:14:57.694Z,10.27
2022-12-22T02:18:07.787Z,12.10
2022-12-22T02:21:12.774Z,10.53
2022-12-22T02:24:34.137Z,8.87
2022-12-22T02:27:37.775Z,10.17
2022-12-22T02:30:39.217Z,10.10
2022-12-22T02:33:41.045Z,13.20
2022-12-22T02:36:48.037Z,10.47
2022-12-22T02:40:00.806Z,9.37
2022-12-22T02:43:15.260Z,9.23
2022-12-22T02:46:26.416Z,10.67
2022-12-22T02:49:35.125Z,10.03
2022-12-22T02:52:41.285Z,12.93
2022-12-22T02:55:44.647Z,11.50
2022-12-22T02:58:51.026Z,8.70
2022-12-22T03:01:52.562Z,10.27
2022-12-22T03:04:53.515Z,9.30
2022-12-22T03:07:54.747Z,12.03
2022-12-22T03:10:57.347Z,9.67
2022-12-22T03:13:59.699Z,6.67
2022-12-22T03:17:00.402Z,8.47
2022-12-22T03:20:01.532Z,7.43
2022-12-22T03:23:04.956Z,11.10
2022-12-22T03:25:51.958Z,7.93
2022-12-22T03:28:35.660Z,7.50
2022-12-22T03:31:20.776Z,7.63
2022-12-22T03:34:04.615Z,10.07
2022-12-22T03:36:48.273Z,10.43
2022-12-22T03:39:33.696Z,7.30
2022-12-22T03:42:35.037Z,7.23
2022-12-22T03:45:36.179Z,10.33
2022-12-22T03:48:21.296Z,10.73
2022-12-22T03:51:05.189Z,8.23
2022-12-22T03:53:48.903Z,13.77
2022-12-22T03:56:32.742Z,8.30
2022-12-22T03:59:17.763Z,8.60
2022-12-22T04:02:01.788Z,9.67
2022-12-22T04:04:46.947Z,9.50
2022-12-22T04:07:30.731Z,10.33
2022-12-22T04:10:32.273Z,10.17
2022-12-22T04:13:15.953Z,12.93
2022-12-22T04:15:59.799Z,14.37
2022-12-22T04:18:43.709Z,18.53
2022-12-22T04:21:29.204Z,20.23
2022-12-22T04:24:13.595Z,13.00
2022-12-22T04:26:57.430Z,11.00
2022-12-22T04:29:41.171Z,14.30
2022-12-22T04:32:24.934Z,12.03
2022-12-22T04:35:09.773Z,13.47
2022-12-22T04:37:54.921Z,15.13
2022-12-22T04:40:38.707Z,17.30
2022-12-22T04:43:22.510Z,19.90
2022-12-22T04:46:06.958Z,23.53
2022-12-22T04:48:54.711Z,19.00
2022-12-22T04:51:43.268Z,17.77
2022-12-22T04:54:28.416Z,16.53
2022-12-22T04:57:12.194Z,19.17
2022-12-22T04:59:56.170Z,13.43
2022-12-22T05:02:40.106Z,17.57
2022-12-22T05:05:23.865Z,20.67
2022-12-22T05:08:07.911Z,17.50
2022-12-22T05:10:53.219Z,28.70
2022-12-22T05:13:37.100Z,26.07
2022-12-22T05:16:20.940Z,20.70
2022-12-22T05:19:04.824Z,21.77
2022-12-22T05:21:48.577Z,24.43
2022-12-22T05:24:32.302Z,22.17
2022-12-22T05:27:17.535Z,20.80
2022-12-22T05:30:01.376Z,23.97
2022-12-22T05:32:48.119Z,19.50
2022-12-22T05:35:31.846Z,19.33
2022-12-22T05:38:15.664Z,17.67
2022-12-22T05:41:03.896Z,16.43
2022-12-22T05:43:49.624Z,20.13
2022-12-22T05:46:33.315Z,19.00
2022-12-22T05:49:17.174Z,17.97
2022-12-22T05:52:01.155Z,19.87
2022-12-22T05:54:45.246Z,14.50
2022-12-22T05:57:29.337Z,18.03
2022-12-22T06:00:16.977Z,19.57
2022-12-22T06:03:01.182Z,19.03
2022-12-22T06:05:45.269Z,17.87
2022-12-22T06:08:29.211Z,18.47
2022-12-22T06:11:12.945Z,26.57
2022-12-22T06:13:56.678Z,16.73
2022-12-22T06:16:41.778Z,16.90
2022-12-22T06:19:25.603Z,26.67
2022-12-22T06:22:09.582Z,24.57
2022-12-22T06:24:53.422Z,26.63
2022-12-22T06:27:37.203Z,18.90
2022-12-22T06:30:22.560Z,50.97
2022-12-22T06:33:09.820Z,53.80
2022-12-22T06:35:58.719Z,45.17
2022-12-22T06:38:43.004Z,50.53
2022-12-22T06:41:40.524Z,56.00
2022-12-22T06:44:24.355Z,57.33
2022-12-22T06:47:08.193Z,79.77
2022-12-22T06:49:53.369Z,47.83
2022-12-22T06:52:37.167Z,44.03
2022-12-22T06:55:21.017Z,37.87
2022-12-22T06:58:05.499Z,48.73
2022-12-22T07:00:51.350Z,40.50
2022-12-22T07:03:35.254Z,40.23
2022-12-22T07:06:20.646Z,35.77
2022-12-22T07:09:04.829Z,38.50
2022-12-22T07:11:48.707Z,26.40
2022-12-22T07:14:32.482Z,29.17
2022-12-22T07:17:16.293Z,25.13
2022-12-22T07:20:00.072Z,26.93
2022-12-22T07:22:45.281Z,26.17
2022-12-22T07:25:29.089Z,27.13
2022-12-22T07:28:18.402Z,35.67
2022-12-22T07:31:04.844Z,28.60
2022-12-22T07:33:48.709Z,24.07
2022-12-22T07:36:51.088Z,25.37
2022-12-22T07:39:54.470Z,23.60
2022-12-22T07:42:47.014Z,18.27
2022-12-22T07:45:30.804Z,18.07
2022-12-22T07:48:59.077Z,13.73
2022-12-22T07:52:01.460Z,13.87
2022-12-22T07:55:05.366Z,15.77
2022-12-22T07:58:07.471Z,12.73
2022-12-22T08:01:09.739Z,13.10
2022-12-22T08:03:53.674Z,12.67
2022-12-22T08:06:37.887Z,15.77
2022-12-22T08:09:23.128Z,22.00
2022-12-22T08:12:08.748Z,15.77
2022-12-22T08:14:52.548Z,12.73
2022-12-22T08:17:36.262Z,13.37
2022-12-22T08:20:20.145Z,15.40
2022-12-22T08:23:22.314Z,16.43
2022-12-22T08:26:14.783Z,12.73
2022-12-22T08:29:05.067Z,15.27
2022-12-22T08:32:07.808Z,21.93
2022-12-22T08:34:53.308Z,21.57
2022-12-22T08:37:55.483Z,20.87
2022-12-22T08:40:39.462Z,16.40
2022-12-22T08:43:25.029Z,17.20
2022-12-22T08:46:10.182Z,15.67
2022-12-22T08:48:53.910Z,13.17
2022-12-22T08:51:37.848Z,13.57
2022-12-22T08:54:22.351Z,11.67
2022-12-22T08:57:06.217Z,11.23
2022-12-22T08:59:50.028Z,13.33
2022-12-22T09:02:35.422Z,18.43
2022-12-22T09:05:19.492Z,19.97
2022-12-22T09:08:03.285Z,16.83
2022-12-22T09:10:47.224Z,9.47
2022-12-22T09:13:31.003Z,10.20
2022-12-22T09:16:14.985Z,10.03
2022-12-22T09:19:00.840Z,11.97
2022-12-22T09:21:45.113Z,9.83
2022-12-22T09:24:30.232Z,10.47
2022-12-22T09:27:14.092Z,10.97
2022-12-22T09:29:57.758Z,13.53
2022-12-22T09:32:41.545Z,9.77
2022-12-22T09:35:26.688Z,9.37
2022-12-22T09:38:10.484Z,9.87
2022-12-22T09:40:54.309Z,10.97
2022-12-22T09:43:38.749Z,9.63
2022-12-22T09:46:25.730Z,7.20
2022-12-22T09:49:13.685Z,8.40
2022-12-22T09:52:01.409Z,8.40
2022-12-22T09:54:45.221Z,9.93
2022-12-22T09:57:32.346Z,10.00
2022-12-22T10:00:19.385Z,12.97
2022-12-22T10:03:11.034Z,16.60
2022-12-22T10:06:00.775Z,14.13
2022-12-22T10:08:45.862Z,10.53
2022-12-22T10:11:29.608Z,22.40
2022-12-22T10:14:13.394Z,18.10
2022-12-22T10:17:19.059Z,6.43
2022-12-22T10:20:21.735Z,20.37
2022-12-22T10:23:15.278Z,18.00
2022-12-22T10:29:15.602Z,22.83
2022-12-22T10:32:02.204Z,15.57
2022-12-22T10:35:01.721Z,15.67
2022-12-22T10:37:48.005Z,9.27
2022-12-22T10:40:33.589Z,38.97
2022-12-22T10:43:24.996Z,21.43
2022-12-22T10:46:08.996Z,17.13
2022-12-22T10:48:52.827Z,8.43
2022-12-22T10:51:36.651Z,18.33
2022-12-22T10:54:29.708Z,14.30
2022-12-22T10:57:29.713Z,10.87
2022-12-22T11:00:27.291Z,12.67
2022-12-22T11:03:19.138Z,10.90
2022-12-22T11:06:14.393Z,12.30
2022-12-22T11:09:23.724Z,16.77
2022-12-22T11:12:12.042Z,15.40
2022-12-22T11:15:02.250Z,28.17
2022-12-22T11:17:57.591Z,16.77
2022-12-22T11:20:52.807Z,18.43
2022-12-22T11:23:45.484Z,14.20
2022-12-22T11:26:41.219Z,21.70
2022-12-22T11:29:44.148Z,10.40
2022-12-22T11:32:46.773Z,17.23
2022-12-22T11:35:52.691Z,26.80
2022-12-22T11:38:48.499Z,18.37
2022-12-22T11:41:58.171Z,12.93
2022-12-22T11:44:48.791Z,11.77
2022-12-22T11:47:40.628Z,12.33
2022-12-22T11:51:00.346Z,9.93
2022-12-22T11:54:05.380Z,9.00
2022-12-22T11:57:02.265Z,10.07
2022-12-22T11:59:55.956Z,15.43
2022-12-22T12:03:14.375Z,11.33
2022-12-22T12:06:13.376Z,14.50
2022-12-22T12:09:16.500Z,14.00
2022-12-22T12:12:09.862Z,9.10
2022-12-22T12:15:06.935Z,13.37
2022-12-22T12:18:09.233Z,13.20
2022-12-22T12:21:04.033Z,7.67
2022-12-22T12:24:05.778Z,7.33
2022-12-22T12:27:03.689Z,9.00
2022-12-22T12:30:35.811Z,11.47
2022-12-22T12:33:09.017Z,13.17
2022-12-22T12:36:01.149Z,14.20
2022-12-22T12:39:10.348Z,22.07
2022-12-22T12:42:05.975Z,14.40
2022-12-22T12:44:52.393Z,15.30
2022-12-22T12:47:37.685Z,25.03
2022-12-22T12:50:42.648Z,13.50
2022-12-22T12:53:28.120Z,14.60
2022-12-22T12:56:12.347Z,35.17
2022-12-22T12:58:58.414Z,69.17
2022-12-22T13:02:01.470Z,38.77
2022-12-22T13:05:29.941Z,18.73
2022-12-22T13:08:22.100Z,20.63
2022-12-22T13:12:10.439Z,12.70
2022-12-22T13:15:01.410Z,11.67
2022-12-22T13:17:50.496Z,10.87
2022-12-22T13:20:36.419Z,14.13
2022-12-22T13:23:20.348Z,15.57
2022-12-22T13:26:08.139Z,16.83
2022-12-22T13:28:57.437Z,13.53
2022-12-22T13:31:45.832Z,11.40
2022-12-22T13:35:20.181Z,18.37
2022-12-22T13:37:49.488Z,17.80
2022-12-22T13:40:41.180Z,20.83
2022-12-22T13:43:27.412Z,19.70
2022-12-22T13:46:11.517Z,21.83
2022-12-22T13:49:00.558Z,24.37
2022-12-22T13:51:44.348Z,28.43
2022-12-22T13:54:31.850Z,16.60
2022-12-22T13:57:19.450Z,16.37
2022-12-22T14:00:03.518Z,19.67
2022-12-22T14:02:54.073Z,15.53
2022-12-22T14:05:39.518Z,16.17
2022-12-22T14:08:25.047Z,15.77
2022-12-22T14:11:10.523Z,15.17
2022-12-22T14:13:54.439Z,21.77
2022-12-22T14:16:44.483Z,15.80
2022-12-22T14:19:32.198Z,21.50
2022-12-22T14:22:19.929Z,17.87
2022-12-22T14:25:10.579Z,17.73
2022-12-22T14:27:56.496Z,15.83
2022-12-22T14:30:45.298Z,29.10
2022-12-22T14:33:31.468Z,28.80
2022-12-22T14:36:18.481Z,31.03
2022-12-22T14:39:10.879Z,20.73
2022-12-22T14:41:57.271Z,19.67
2022-12-22T14:44:46.115Z,21.00
2022-12-22T14:47:30.368Z,24.50
2022-12-22T14:50:19.031Z,36.13
2022-12-22T14:53:05.113Z,45.20
2022-12-22T14:55:52.860Z,38.57
2022-12-22T14:58:41.184Z,37.40
2022-12-22T15:01:28.576Z,29.37
2022-12-22T15:04:18.534Z,27.83
2022-12-22T15:07:24.104Z,34.03
2022-12-22T15:10:15.648Z,48.23
2022-12-22T15:13:06.127Z,39.97
2022-12-22T15:15:51.025Z,49.13
2022-12-22T15:18:34.851Z,38.33
2022-12-22T15:21:20.247Z,26.97
2022-12-22T15:24:05.242Z,34.67
2022-12-22T15:26:49.151Z,34.47
2022-12-22T15:29:34.405Z,34.97
2022-12-22T15:32:18.277Z,43.27
2022-12-22T15:35:03.761Z,30.43
2022-12-22T15:37:47.757Z,29.33
2022-12-22T15:40:31.646Z,47.00
2022-12-22T15:43:53.866Z,47.47
2022-12-22T15:46:22.406Z,40.57
2022-12-22T15:49:11.560Z,41.63
2022-12-22T15:51:57.624Z,48.30
2022-12-22T15:54:41.741Z,28.77
2022-12-22T15:57:25.689Z,47.40
2022-12-22T16:00:12.234Z,37.77
2022-12-22T16:02:57.545Z,41.00
2022-12-22T16:05:42.163Z,36.10
2022-12-22T16:08:30.144Z,30.73
2022-12-22T16:11:14.220Z,29.93
2022-12-22T16:13:58.033Z,60.00
2022-12-22T16:16:42.282Z,56.20
2022-12-22T16:19:27.520Z,43.63
2022-12-22T16:22:13.005Z,44.70
2022-12-22T16:24:56.929Z,51.17
2022-12-22T16:27:40.636Z,34.40
2022-12-22T16:30:26.777Z,30.87
2022-12-22T16:33:12.727Z,42.07
2022-12-22T16:35:57.885Z,40.57
2022-12-22T16:38:41.642Z,36.43
2022-12-22T16:41:26.894Z,43.87
2022-12-22T16:44:10.977Z,45.23
2022-12-22T16:46:54.949Z,31.40
2022-12-22T16:49:39.641Z,53.13
2022-12-22T16:52:29.558Z,45.67
2022-12-22T16:55:16.711Z,37.83
2022-12-22T16:58:00.590Z,44.00
2022-12-22T17:00:46.359Z,53.70
2022-12-22T17:03:31.617Z,61.60
2022-12-22T17:06:15.551Z,43.47
2022-12-22T17:09:01.188Z,42.17
2022-12-22T17:11:45.965Z,69.70
2022-12-22T17:14:34.300Z,87.47
2022-12-22T17:17:26.827Z,41.87
2022-12-22T17:20:16.016Z,39.27
2022-12-22T17:23:02.147Z,41.33
2022-12-22T17:25:47.410Z,38.53
2022-12-22T17:28:31.473Z,44.60
2022-12-22T17:31:21.163Z,40.93
2022-12-22T17:34:14.583Z,40.13
2022-12-22T17:37:00.040Z,44.33
2022-12-22T17:39:45.218Z,38.60
2022-12-22T17:42:32.751Z,42.73
2022-12-22T17:45:18.484Z,62.97
2022-12-22T17:48:02.811Z,72.27
2022-12-22T17:50:49.838Z,89.80
2022-12-22T17:53:40.618Z,77.67
2022-12-22T17:56:27.129Z,53.73
2022-12-22T17:59:14.188Z,55.43
2022-12-22T18:01:58.378Z,99.07
2022-12-22T18:04:42.455Z,98.60
2022-12-22T18:07:26.619Z,66.60
2022-12-22T18:10:26.830Z,40.43
2022-12-22T18:13:18.100Z,35.60
2022-12-22T18:16:03.803Z,31.80
2022-12-22T18:18:48.761Z,32.40
2022-12-22T18:21:33.203Z,30.10
2022-12-22T18:24:18.550Z,34.20
2022-12-22T18:27:02.534Z,37.60
2022-12-22T18:29:48.092Z,36.60
2022-12-22T18:32:33.549Z,36.40
2022-12-22T18:35:19.005Z,27.30
2022-12-22T18:38:03.607Z,31.70
2022-12-22T18:40:49.053Z,30.43
2022-12-22T18:43:33.098Z,34.00
2022-12-22T18:46:17.509Z,32.20
2022-12-22T18:49:05.779Z,33.23
2022-12-22T18:51:50.319Z,28.60
2022-12-22T18:54:37.086Z,33.27
2022-12-22T18:57:21.730Z,28.17
2022-12-22T19:00:11.572Z,28.63
2022-12-22T19:03:00.539Z,30.63
2022-12-22T19:05:47.730Z,29.90
2022-12-22T19:08:32.006Z,28.87
2022-12-22T19:11:17.675Z,27.77
2022-12-22T19:14:02.720Z,27.93
2022-12-22T19:16:47.861Z,25.13
2022-12-22T19:19:32.000Z,26.40
2022-12-22T19:22:17.996Z,28.40
2022-12-22T19:25:02.018Z,41.77
2022-12-22T19:27:49.570Z,39.87
2022-12-22T19:30:34.412Z,50.03
2022-12-22T19:33:23.953Z,34.00
2022-12-22T19:36:09.079Z,35.10
2022-12-22T19:39:02.662Z,37.17
2022-12-22T19:41:51.507Z,30.83
2022-12-22T19:44:35.742Z,33.80
2022-12-22T19:47:22.487Z,34.63
2022-12-22T19:50:14.885Z,38.80
2022-12-22T19:52:59.934Z,32.80
2022-12-22T19:55:48.508Z,32.93
2022-12-22T19:58:39.310Z,34.73
2022-12-22T20:01:23.754Z,44.00
2022-12-22T20:04:13.033Z,33.70
2022-12-22T20:06:57.089Z,27.70
2022-12-22T20:09:40.772Z,29.83
2022-12-22T20:12:30.629Z,33.63
2022-12-22T20:15:18.667Z,37.73
2022-12-22T20:18:03.267Z,32.93
2022-12-22T20:20:58.261Z,31.60
2022-12-22T20:23:43.173Z,41.07
2022-12-22T20:26:27.825Z,36.03
2022-12-22T20:29:13.396Z,36.33
2022-12-22T20:31:57.401Z,35.10
2022-12-22T20:34:41.851Z,36.70
2022-12-22T20:37:26.675Z,29.97
2022-12-22T20:40:25.029Z,32.17
2022-12-22T20:43:14.755Z,27.60
2022-12-22T20:46:05.272Z,26.30
2022-12-22T20:48:51.589Z,27.03
2022-12-22T20:51:35.760Z,24.80
2022-12-22T20:54:19.735Z,23.93
2022-12-22T20:57:04.570Z,22.63
2022-12-22T20:59:55.420Z,24.43
2022-12-22T21:02:41.685Z,21.50
2022-12-22T21:05:25.592Z,17.87
2022-12-22T21:08:20.271Z,17.67
2022-12-22T21:11:05.541Z,22.37
2022-12-22T21:13:49.960Z,15.30
2022-12-22T21:16:34.268Z,20.10
2022-12-22T21:19:20.340Z,20.80
2022-12-22T21:22:04.212Z,16.27
2022-12-22T21:24:48.098Z,19.33
2022-12-22T21:27:31.833Z,19.03
2022-12-22T21:30:18.831Z,17.23
2022-12-22T21:33:02.636Z,16.87
2022-12-22T21:35:47.983Z,18.90
2022-12-22T21:38:34.355Z,18.80
2022-12-22T21:41:18.077Z,23.33
2022-12-22T21:44:01.796Z,30.23
2022-12-22T21:46:47.846Z,46.37
2022-12-22T21:49:33.763Z,27.20
2022-12-22T21:52:19.641Z,30.93
2022-12-22T21:55:05.400Z,29.87
2022-12-22T21:57:49.839Z,39.33
2022-12-22T22:00:34.926Z,42.97
2022-12-22T22:03:19.013Z,40.47
2022-12-22T22:06:03.066Z,66.97
2022-12-22T22:08:48.572Z,43.77
2022-12-22T22:11:33.194Z,49.93
2022-12-22T22:14:17.637Z,63.47
2022-12-22T22:17:01.531Z,47.83
2022-12-22T22:19:45.332Z,52.43
2022-12-22T22:22:29.196Z,37.07
2022-12-22T22:25:15.411Z,55.87
2022-12-22T22:28:00.492Z,38.57
2022-12-22T22:30:44.485Z,42.83
2022-12-22T22:33:28.244Z,47.80
2022-12-22T22:36:12.133Z,46.43
2022-12-22T22:38:56.104Z,25.63
2022-12-22T22:41:43.539Z,23.57
2022-12-22T22:44:27.845Z,38.00
2022-12-22T22:47:11.635Z,22.10
2022-12-22T22:49:55.391Z,26.63
2022-12-22T22:52:39.172Z,26.53
2022-12-22T22:55:23.229Z,44.70
2022-12-22T22:58:08.981Z,38.07
2022-12-22T23:00:52.822Z,36.37
2022-12-22T23:03:37.796Z,36.07
2022-12-22T23:06:21.737Z,24.40
2022-12-22T23:09:05.905Z,28.93
2022-12-22T23:11:52.585Z,26.27
2022-12-22T23:14:37.752Z,32.37
2022-12-22T23:17:21.521Z,28.27
2022-12-22T23:20:06.132Z,33.93
2022-12-22T23:22:49.884Z,29.37
2022-12-22T23:25:33.980Z,26.73
2022-12-22T23:28:18.729Z,27.40
2022-12-22T23:31:03.982Z,35.30
2022-12-22T23:33:48.159Z,34.63
2022-12-22T23:36:32.509Z,32.07
2022-12-22T23:39:16.443Z,29.93
2022-12-22T23:42:02.131Z,24.43
2022-12-22T23:44:45.924Z,26.27
2022-12-22T23:47:31.112Z,30.13
2022-12-22T23:50:14.847Z,27.70
2022-12-22T23:52:58.658Z,32.13
2022-12-22T23:55:44.566Z,24.10
2022-12-22T23:58:28.473Z,18.70
